Aérodrome :
LOGIN :

S'inscrire | Disclaimer

   EN    FR    IT 

 










Légende :    VFR   VFR Marginal   IFR   IFR Intensif   IFR Très Intensif
Visi : 
Plafond : 
>= 8 km
>= 3000ft
5 à 8 km
1000 à 3000 ft
1500m à 5 km
500 à 1000 ft
800 à 1500m
200 à 500 ft
< 800m
< 200 ft
Symboles :   Orages  Brouillard  Fortes neiges  Fortes précipitations  Vent > 20 kt
SIGMETs :   Divers  Orages  Givrage  Turbulence  Onde Orograph.  Cendres Volcan.







- Altitude de l'aérodrome : 659 ft
- Code IATA : LGG


EBLG - Liège

DERNIER METAR :
  • 280320Z 16007KT 9999 FEW035 18/16 Q0998 NOSIG

METARs EXPIRÉS :
  • 280250Z 18009KT 9999 FEW035 18/16 Q0998 NOSIG
  • 280220Z 18006KT 9999 FEW035 19/16 Q0998 NOSIG
  • 280150Z 16007KT 9999 FEW030 19/17 Q0998 NOSIG
  • 280120Z 13005KT 9999 FEW030 18/17 Q0999 NOSIG
  • 280050Z 15005KT 9999 FEW030 18/17 Q0999 NOSIG

TAF TAF EBLG
Valide du 28 à 00h jusqu'au 29 à 06h UTC


272309Z 2800/2906 13004KT 9999 FEW030
PROB40
TEMPO 2801/2808 4000 BR BKN006
PROB30
TEMPO 2803/2811 3500 SHRA TSRA
BECMG 2806/2808 23010KT
PROB40
TEMPO 2819/2906 3500 SHRA BKN014CB
Pas de NOTAMs connus pour ce terrain.



MET'MAP, la Météo Aéronautique d'un coup d'oeil ! - Copyright ORBIFLY Décembre 2007 - Disclaimer

ORBIFLY MET'MAP TEAM :

Programmation & Développement : Alexandra Zaïnal
Conception & Développement : Baudouin d'Aumeries
Co-Programmation & Développement : Marc-Olivier Méhu
Soutien technique & logistique : Manuel Goepfert

Contact : metmap@orbifly.com




SOURCES & CREDITS :

   NOAA